createdAt,value
2023-02-15T00:01:53.265Z,4.30
2023-02-15T00:04:24.766Z,4.30
2023-02-15T00:06:53.515Z,4.30
2023-02-15T00:09:22.361Z,4.20
2023-02-15T00:11:51.928Z,4.20
2023-02-15T00:14:23.451Z,4.20
2023-02-15T00:16:54.142Z,4.20
2023-02-15T00:19:23.784Z,4.20
2023-02-15T00:21:52.612Z,4.10
2023-02-15T00:24:22.024Z,4.10
2023-02-15T00:26:51.109Z,4.10
2023-02-15T00:29:22.702Z,4.10
2023-02-15T00:31:52.743Z,4.10
2023-02-15T00:34:24.566Z,4.10
2023-02-15T00:36:54.119Z,4.00
2023-02-15T00:39:23.203Z,4.00
2023-02-15T00:41:52.612Z,3.90
2023-02-15T00:44:22.827Z,3.90
2023-02-15T00:46:52.149Z,3.80
2023-02-15T00:49:23.136Z,3.80
2023-02-15T00:51:52.370Z,3.80
2023-02-15T00:54:21.496Z,3.80
2023-02-15T00:56:50.821Z,3.70
2023-02-15T00:59:19.636Z,3.70
2023-02-15T01:01:51.638Z,3.70
2023-02-15T01:04:22.087Z,3.70
2023-02-15T01:06:51.054Z,3.70
2023-02-15T01:09:20.175Z,3.70
2023-02-15T01:11:49.021Z,3.70
2023-02-15T01:14:17.865Z,3.70
2023-02-15T01:16:46.974Z,3.70
2023-02-15T01:19:17.283Z,3.70
2023-02-15T01:21:46.200Z,3.80
2023-02-15T01:24:15.934Z,3.80
2023-02-15T01:26:45.213Z,3.80
2023-02-15T01:29:14.255Z,3.80
2023-02-15T01:31:43.403Z,3.80
2023-02-15T01:34:12.514Z,3.80
2023-02-15T01:36:42.927Z,3.80
2023-02-15T01:39:11.925Z,3.70
2023-02-15T01:41:40.865Z,3.70
2023-02-15T01:44:48.156Z,3.70
2023-02-15T01:47:20.114Z,3.70
2023-02-15T01:49:49.765Z,3.70
2023-02-15T01:52:21.951Z,3.70
2023-02-15T01:54:53.043Z,3.60
2023-02-15T01:57:26.180Z,3.60
2023-02-15T02:00:01.031Z,3.60
2023-02-15T02:02:30.369Z,3.60
2023-02-15T02:05:04.011Z,3.60
2023-02-15T02:07:37.118Z,3.60
2023-02-15T02:10:10.817Z,3.60
2023-02-15T02:12:42.461Z,3.60
2023-02-15T02:15:11.982Z,3.50
2023-02-15T02:17:53.497Z,3.50
2023-02-15T02:20:39.950Z,3.50
2023-02-15T02:23:41.346Z,3.50
2023-02-15T02:26:34.822Z,3.50
2023-02-15T02:29:47.278Z,3.50
2023-02-15T02:32:56.904Z,3.50
2023-02-15T02:35:32.295Z,3.50
2023-02-15T02:38:07.850Z,3.50
2023-02-15T02:40:50.684Z,3.50
2023-02-15T02:43:27.896Z,3.60
2023-02-15T02:46:02.908Z,3.60
2023-02-15T02:48:35.581Z,3.60
2023-02-15T02:51:05.923Z,3.60
2023-02-15T02:53:35.766Z,3.70
2023-02-15T02:56:12.616Z,3.70
2023-02-15T02:58:45.688Z,3.70
2023-02-15T03:01:18.401Z,3.70
2023-02-15T03:03:51.247Z,3.60
2023-02-15T03:06:25.101Z,3.60
2023-02-15T03:08:59.888Z,3.50
2023-02-15T03:11:29.004Z,3.50
2023-02-15T03:13:58.826Z,3.40
2023-02-15T03:16:28.882Z,3.40
2023-02-15T03:19:01.943Z,3.30
2023-02-15T03:21:38.556Z,3.30
2023-02-15T03:24:16.326Z,3.30
2023-02-15T03:26:48.617Z,3.30
2023-02-15T03:29:21.326Z,3.40
2023-02-15T03:31:58.872Z,3.30
2023-02-15T03:34:28.360Z,3.40
2023-02-15T03:37:08.302Z,3.40
2023-02-15T03:39:44.063Z,3.40
2023-02-15T03:42:18.886Z,3.40
2023-02-15T03:44:56.022Z,3.40
2023-02-15T03:47:30.366Z,3.40
2023-02-15T03:50:02.170Z,3.40
2023-02-15T03:52:35.088Z,3.40
2023-02-15T03:55:04.885Z,3.40
2023-02-15T03:57:54.795Z,3.50
2023-02-15T04:00:43.762Z,3.50
2023-02-15T04:03:24.873Z,3.50
2023-02-15T04:05:53.789Z,3.50
2023-02-15T04:08:44.165Z,3.60
2023-02-15T04:11:12.156Z,3.60
2023-02-15T04:13:42.725Z,3.60
2023-02-15T04:16:10.865Z,3.60
2023-02-15T04:19:00.783Z,3.60
2023-02-15T04:21:49.058Z,3.70
2023-02-15T04:24:37.681Z,3.70
2023-02-15T04:27:07.540Z,3.70
2023-02-15T04:29:36.606Z,3.70
2023-02-15T04:32:06.296Z,3.70
2023-02-15T04:34:35.080Z,3.70
2023-02-15T04:37:03.994Z,3.70
2023-02-15T04:39:34.204Z,3.70
2023-02-15T04:42:02.995Z,3.70
2023-02-15T04:44:31.810Z,3.70
2023-02-15T04:47:00.624Z,3.70
2023-02-15T04:49:29.620Z,3.60
2023-02-15T04:51:58.585Z,3.60
2023-02-15T04:54:27.376Z,3.60
2023-02-15T04:56:57.531Z,3.60
2023-02-15T04:59:26.392Z,3.60
2023-02-15T05:01:55.691Z,3.60
2023-02-15T05:04:24.668Z,3.60
2023-02-15T05:06:53.516Z,3.60
2023-02-15T05:09:22.349Z,3.60
2023-02-15T05:11:51.250Z,3.60
2023-02-15T05:14:21.710Z,3.60
2023-02-15T05:16:51.050Z,3.60
2023-02-15T05:19:20.056Z,3.60
2023-02-15T05:21:49.015Z,3.70
2023-02-15T05:24:35.405Z,3.70
2023-02-15T05:27:22.120Z,3.60
2023-02-15T05:29:52.955Z,3.60
2023-02-15T05:32:22.293Z,3.60
2023-02-15T05:34:51.677Z,3.50
2023-02-15T05:37:21.071Z,3.50
2023-02-15T05:39:50.067Z,3.50
2023-02-15T05:42:19.120Z,3.50
2023-02-15T05:44:48.555Z,3.50
2023-02-15T05:47:19.214Z,3.50
2023-02-15T05:49:48.498Z,3.40
2023-02-15T05:52:17.905Z,3.40
2023-02-15T05:54:47.056Z,3.30
2023-02-15T05:57:15.992Z,3.30
2023-02-15T05:59:45.374Z,3.20
2023-02-15T06:02:15.058Z,3.20
2023-02-15T06:04:45.490Z,3.20
2023-02-15T06:07:14.439Z,3.20
2023-02-15T06:09:43.540Z,3.20
2023-02-15T06:12:12.703Z,3.20
2023-02-15T06:14:41.729Z,3.20
2023-02-15T06:17:10.803Z,3.20
2023-02-15T06:19:39.824Z,3.10
2023-02-15T06:22:10.164Z,3.10
2023-02-15T06:24:39.275Z,3.10
2023-02-15T06:27:08.289Z,3.10
2023-02-15T06:29:37.212Z,3.10
2023-02-15T06:32:06.642Z,3.10
2023-02-15T06:34:35.662Z,3.00
2023-02-15T06:37:04.796Z,3.00
2023-02-15T06:39:35.623Z,3.00
2023-02-15T06:42:04.717Z,3.00
2023-02-15T06:44:33.666Z,2.90
2023-02-15T06:47:02.619Z,2.90
2023-02-15T06:49:31.683Z,2.90
2023-02-15T06:52:00.771Z,3.00
2023-02-15T06:54:29.859Z,3.00
2023-02-15T06:57:00.417Z,3.00
2023-02-15T06:59:29.501Z,3.10
2023-02-15T07:01:58.699Z,3.10
2023-02-15T07:04:29.600Z,3.10
2023-02-15T07:06:59.254Z,3.10
2023-02-15T07:09:28.521Z,3.10
2023-02-15T07:12:15.009Z,3.10
2023-02-15T07:14:45.435Z,3.20
2023-02-15T07:17:32.779Z,3.10
2023-02-15T07:20:04.809Z,3.10
2023-02-15T07:22:35.089Z,3.10
2023-02-15T07:25:05.897Z,3.20
2023-02-15T07:27:35.014Z,3.10
2023-02-15T07:30:07.329Z,3.20
2023-02-15T07:32:36.644Z,3.20
2023-02-15T07:35:06.017Z,3.20
2023-02-15T07:37:34.929Z,3.20
2023-02-15T07:40:04.917Z,3.20
2023-02-15T07:42:34.121Z,3.30
2023-02-15T07:45:03.356Z,3.30
2023-02-15T07:47:33.773Z,3.30
2023-02-15T07:50:03.100Z,3.20
2023-02-15T07:52:32.037Z,3.20
2023-02-15T07:55:00.950Z,3.20
2023-02-15T07:57:30.805Z,3.20
2023-02-15T07:59:59.774Z,3.20
2023-02-15T08:02:29.925Z,3.30
2023-02-15T08:05:00.402Z,3.30
2023-02-15T08:07:29.395Z,3.30
2023-02-15T08:10:00.342Z,3.30
2023-02-15T08:12:29.811Z,3.30
2023-02-15T08:14:59.554Z,3.30
2023-02-15T08:17:28.563Z,3.30
2023-02-15T08:19:57.498Z,3.30
2023-02-15T08:22:27.923Z,3.30
2023-02-15T08:24:57.273Z,3.20
2023-02-15T08:27:27.701Z,3.20
2023-02-15T08:29:56.839Z,3.20
2023-02-15T08:32:26.145Z,3.20
2023-02-15T08:34:55.293Z,3.20
2023-02-15T08:37:24.285Z,3.20
2023-02-15T08:39:54.787Z,3.20
2023-02-15T08:42:24.000Z,3.30
2023-02-15T08:44:53.323Z,3.30
2023-02-15T08:47:22.406Z,3.40
2023-02-15T08:49:52.170Z,3.50
2023-02-15T08:52:21.217Z,3.50
2023-02-15T08:54:50.415Z,3.50
2023-02-15T08:57:20.818Z,3.50
2023-02-15T08:59:51.927Z,3.50
2023-02-15T09:02:21.445Z,3.50
2023-02-15T09:04:50.532Z,3.50
2023-02-15T09:07:20.219Z,3.60
2023-02-15T09:09:49.233Z,3.60
2023-02-15T09:12:19.966Z,3.60
2023-02-15T09:14:49.157Z,3.70
2023-02-15T09:17:18.191Z,3.70
2023-02-15T09:19:47.262Z,3.80
2023-02-15T09:22:16.399Z,3.80
2023-02-15T09:24:47.317Z,3.90
2023-02-15T09:27:16.421Z,3.90
2023-02-15T09:29:46.631Z,3.90
2023-02-15T09:32:17.531Z,4.00
2023-02-15T09:34:46.414Z,4.10
2023-02-15T09:37:15.402Z,4.10
2023-02-15T09:39:46.914Z,4.20
2023-02-15T09:42:37.243Z,4.20
2023-02-15T09:45:25.436Z,4.30
2023-02-15T09:48:30.609Z,4.40
2023-02-15T09:51:14.838Z,4.40
2023-02-15T09:54:04.993Z,4.40
2023-02-15T09:56:39.822Z,4.40
2023-02-15T09:59:18.321Z,4.30
2023-02-15T10:01:58.477Z,4.30
2023-02-15T10:04:41.086Z,4.30
2023-02-15T10:07:22.971Z,4.30
2023-02-15T10:10:04.981Z,4.40
2023-02-15T10:12:57.461Z,4.40
2023-02-15T10:15:51.926Z,4.40
2023-02-15T10:18:51.142Z,4.50
2023-02-15T10:21:34.126Z,4.60
2023-02-15T10:24:32.911Z,4.70
2023-02-15T10:27:09.612Z,4.70
2023-02-15T10:29:40.714Z,4.80
2023-02-15T10:32:24.306Z,4.90
2023-02-15T10:35:01.077Z,4.90
2023-02-15T10:37:54.744Z,5.00
2023-02-15T10:40:31.579Z,5.00
2023-02-15T10:43:16.351Z,5.10
2023-02-15T10:45:57.663Z,5.10
2023-02-15T10:49:06.613Z,5.10
2023-02-15T10:51:48.334Z,5.20
2023-02-15T10:54:28.078Z,5.20
2023-02-15T10:57:05.052Z,5.30
2023-02-15T10:59:46.211Z,5.40
2023-02-15T11:02:26.353Z,5.40
2023-02-15T11:05:03.681Z,5.40
2023-02-15T11:07:40.261Z,5.50
2023-02-15T11:10:24.282Z,5.50
2023-02-15T11:12:54.847Z,5.50
2023-02-15T11:15:29.474Z,5.50
2023-02-15T11:18:03.730Z,5.60
2023-02-15T11:20:37.647Z,5.60
2023-02-15T11:23:17.078Z,5.60
2023-02-15T11:25:49.425Z,5.70
2023-02-15T11:28:24.292Z,5.70
2023-02-15T11:30:56.906Z,5.80
2023-02-15T11:33:29.164Z,5.80
2023-02-15T11:36:05.800Z,5.90
2023-02-15T11:38:36.621Z,5.90
2023-02-15T11:41:09.087Z,6.00
2023-02-15T11:43:45.193Z,6.00
2023-02-15T11:46:15.911Z,6.00
2023-02-15T11:48:45.116Z,6.10
2023-02-15T11:51:18.214Z,6.10
2023-02-15T11:53:49.122Z,6.10
2023-02-15T11:56:20.598Z,6.10
2023-02-15T11:58:53.330Z,6.10
2023-02-15T12:01:26.616Z,6.10
2023-02-15T12:04:00.405Z,6.10
2023-02-15T12:06:31.807Z,6.10
2023-02-15T12:09:08.244Z,6.10
2023-02-15T12:11:39.476Z,6.10
2023-02-15T12:14:10.665Z,6.10
2023-02-15T12:16:46.692Z,6.20
2023-02-15T12:19:30.460Z,6.20
2023-02-15T12:22:01.203Z,6.20
2023-02-15T12:24:34.851Z,6.20
2023-02-15T12:27:06.786Z,6.20
2023-02-15T12:29:44.087Z,6.20
2023-02-15T12:32:20.575Z,6.30
2023-02-15T12:34:51.119Z,6.50
2023-02-15T12:37:24.275Z,6.60
2023-02-15T12:39:57.481Z,6.70
2023-02-15T12:42:27.780Z,6.80
2023-02-15T12:45:02.230Z,7.00
2023-02-15T12:47:32.462Z,7.30
2023-02-15T12:50:18.093Z,7.70
2023-02-15T12:52:49.967Z,8.40
2023-02-15T12:55:26.556Z,9.00
2023-02-15T12:58:18.593Z,9.50
2023-02-15T13:00:48.198Z,10.00
2023-02-15T13:03:24.896Z,10.40
2023-02-15T13:05:57.353Z,10.60
2023-02-15T13:08:31.141Z,10.80
2023-02-15T13:11:05.557Z,10.90
2023-02-15T13:13:37.346Z,11.10
2023-02-15T13:16:11.961Z,11.20
2023-02-15T13:18:44.679Z,11.30
2023-02-15T13:21:15.968Z,11.30
2023-02-15T13:23:49.638Z,11.30
2023-02-15T13:26:23.270Z,11.30
2023-02-15T13:28:56.148Z,11.40
2023-02-15T13:31:28.825Z,11.60
2023-02-15T13:34:04.520Z,11.80
2023-02-15T13:36:42.829Z,11.90
2023-02-15T13:39:27.303Z,12.00
2023-02-15T13:42:05.973Z,11.90
2023-02-15T13:45:04.535Z,11.70
2023-02-15T13:47:43.329Z,11.50
2023-02-15T13:50:33.649Z,11.20
2023-02-15T13:53:18.557Z,10.90
2023-02-15T13:55:53.689Z,10.50
2023-02-15T13:58:51.210Z,10.20
2023-02-15T14:01:25.220Z,9.90
2023-02-15T14:04:19.388Z,9.60
2023-02-15T14:07:11.586Z,9.30
2023-02-15T14:09:51.837Z,9.00
2023-02-15T14:12:37.589Z,8.80
2023-02-15T14:15:20.138Z,8.50
2023-02-15T14:17:57.528Z,8.40
2023-02-15T14:20:34.537Z,8.20
2023-02-15T14:23:11.601Z,8.10
2023-02-15T14:25:46.526Z,8.10
2023-02-15T14:28:22.842Z,8.00
2023-02-15T14:30:53.689Z,7.90
2023-02-15T14:33:35.842Z,7.80
2023-02-15T14:36:08.519Z,7.80
2023-02-15T14:38:53.620Z,7.70
2023-02-15T14:41:27.000Z,7.70
2023-02-15T14:44:03.553Z,7.60
2023-02-15T14:46:40.059Z,7.60
2023-02-15T14:49:13.717Z,7.50
2023-02-15T14:52:08.011Z,7.40
2023-02-15T14:54:57.935Z,7.40
2023-02-15T14:57:35.816Z,7.30
2023-02-15T15:00:39.997Z,7.30
2023-02-15T15:03:26.045Z,7.30
2023-02-15T15:06:06.134Z,7.30
2023-02-15T15:08:39.321Z,7.30
2023-02-15T15:11:44.315Z,7.20
2023-02-15T15:14:40.513Z,7.20
2023-02-15T15:17:13.449Z,7.10
2023-02-15T15:20:16.592Z,7.10
2023-02-15T15:22:46.196Z,7.00
2023-02-15T15:25:43.520Z,7.00
2023-02-15T15:28:47.232Z,6.90
2023-02-15T15:31:25.440Z,6.90
2023-02-15T15:34:20.480Z,6.90
2023-02-15T15:37:37.707Z,6.90
2023-02-15T15:40:47.989Z,6.80
2023-02-15T15:43:47.258Z,6.80
2023-02-15T15:46:36.070Z,6.80
2023-02-15T15:49:11.673Z,6.70
2023-02-15T15:51:43.600Z,6.70
2023-02-15T15:54:18.254Z,6.70
2023-02-15T15:56:51.530Z,6.60
2023-02-15T15:59:23.979Z,6.60
2023-02-15T16:01:54.619Z,6.60
2023-02-15T16:04:28.217Z,6.50
2023-02-15T16:06:57.582Z,6.50
2023-02-15T16:09:28.774Z,6.40
2023-02-15T16:12:01.399Z,6.30
2023-02-15T16:14:33.983Z,6.30
2023-02-15T16:17:07.344Z,6.20
2023-02-15T16:19:40.116Z,6.20
2023-02-15T16:22:16.149Z,6.10
2023-02-15T16:25:25.574Z,6.10
2023-02-15T16:27:55.416Z,6.00
2023-02-15T16:30:28.871Z,6.00
2023-02-15T16:33:07.946Z,6.00
2023-02-15T16:35:38.376Z,5.90
2023-02-15T16:38:10.733Z,5.90
2023-02-15T16:40:49.612Z,5.90
2023-02-15T16:43:26.536Z,5.90
2023-02-15T16:46:06.586Z,5.90
2023-02-15T16:48:43.756Z,5.80
2023-02-15T16:51:22.439Z,5.80
2023-02-15T16:53:51.753Z,5.80
2023-02-15T16:56:25.903Z,5.70
2023-02-15T16:58:57.569Z,5.70
2023-02-15T17:01:31.059Z,5.70
2023-02-15T17:04:24.965Z,5.70
2023-02-15T17:07:01.365Z,5.70
2023-02-15T17:09:30.441Z,5.60
2023-02-15T17:12:00.732Z,5.50
2023-02-15T17:14:31.639Z,5.50
2023-02-15T17:17:08.829Z,5.40
2023-02-15T17:19:49.816Z,5.40
2023-02-15T17:22:22.235Z,5.30
2023-02-15T17:24:59.660Z,5.30
2023-02-15T17:27:32.050Z,5.20
2023-02-15T17:30:03.721Z,5.20
2023-02-15T17:32:37.121Z,5.20
2023-02-15T17:35:20.447Z,5.20
2023-02-15T17:37:50.988Z,5.20
2023-02-15T17:40:26.334Z,5.20
2023-02-15T17:42:55.728Z,5.20
2023-02-15T17:45:28.035Z,5.20
2023-02-15T17:47:59.547Z,5.20
2023-02-15T17:50:30.189Z,5.20
2023-02-15T17:53:01.393Z,5.20
2023-02-15T17:55:35.598Z,5.20
2023-02-15T17:58:07.256Z,5.20
2023-02-15T18:00:56.125Z,5.20
2023-02-15T18:03:43.760Z,5.20
2023-02-15T18:06:33.363Z,5.20
2023-02-15T18:09:19.934Z,5.30
2023-02-15T18:11:50.694Z,5.30
2023-02-15T18:14:19.702Z,5.30
2023-02-15T18:16:48.853Z,5.30
2023-02-15T18:19:19.969Z,5.30
2023-02-15T18:21:52.495Z,5.30
2023-02-15T18:24:24.297Z,5.30
2023-02-15T18:26:54.001Z,5.30
2023-02-15T18:29:23.150Z,5.20
2023-02-15T18:31:56.157Z,5.20
2023-02-15T18:34:29.678Z,5.20
2023-02-15T18:37:02.735Z,5.20
2023-02-15T18:39:38.373Z,5.10
2023-02-15T18:42:08.659Z,5.10
2023-02-15T18:44:37.817Z,5.10
2023-02-15T18:47:06.750Z,5.10
2023-02-15T18:49:35.675Z,5.10
2023-02-15T18:52:06.275Z,5.10
2023-02-15T18:54:35.410Z,5.00
2023-02-15T18:57:05.476Z,5.00
2023-02-15T18:59:34.460Z,5.00
2023-02-15T19:02:03.423Z,5.00
2023-02-15T19:04:32.753Z,5.00
2023-02-15T19:07:02.044Z,5.00
2023-02-15T19:09:32.677Z,5.00
2023-02-15T19:12:01.994Z,5.00
2023-02-15T19:14:33.810Z,4.90
2023-02-15T19:17:02.802Z,4.90
2023-02-15T19:19:32.022Z,4.90
2023-02-15T19:22:02.724Z,4.90
2023-02-15T19:24:40.059Z,4.90
2023-02-15T19:27:17.599Z,4.80
2023-02-15T19:29:46.583Z,4.80
2023-02-15T19:32:15.759Z,4.80
2023-02-15T19:34:44.971Z,4.80
2023-02-15T19:37:24.691Z,4.80
2023-02-15T19:39:56.254Z,4.80
2023-02-15T19:42:26.514Z,4.70
2023-02-15T19:44:55.720Z,4.70
2023-02-15T19:47:24.990Z,4.70
2023-02-15T19:49:59.086Z,4.60
2023-02-15T19:52:28.158Z,4.60
2023-02-15T19:54:58.686Z,4.60
2023-02-15T19:57:28.918Z,4.50
2023-02-15T19:59:58.005Z,4.50
2023-02-15T20:02:27.018Z,4.40
2023-02-15T20:04:56.112Z,4.40
2023-02-15T20:07:28.366Z,4.30
2023-02-15T20:09:58.738Z,4.30
2023-02-15T20:12:29.427Z,4.30
2023-02-15T20:15:00.125Z,4.30
2023-02-15T20:17:29.318Z,4.30
2023-02-15T20:19:58.395Z,4.40
2023-02-15T20:22:29.092Z,4.30
2023-02-15T20:24:59.808Z,4.30
2023-02-15T20:27:29.382Z,4.30
2023-02-15T20:29:58.506Z,4.30
2023-02-15T20:32:27.583Z,4.30
2023-02-15T20:34:56.611Z,4.20
2023-02-15T20:37:34.210Z,4.30
2023-02-15T20:40:06.865Z,4.20
2023-02-15T20:42:35.881Z,4.30
2023-02-15T20:45:16.489Z,4.30
2023-02-15T20:47:48.587Z,4.20
2023-02-15T20:50:19.301Z,4.30
2023-02-15T20:52:50.436Z,4.30
2023-02-15T20:55:23.301Z,4.30
2023-02-15T20:57:52.445Z,4.30
2023-02-15T21:00:24.535Z,4.30
2023-02-15T21:02:57.847Z,4.30
2023-02-15T21:05:30.138Z,4.30
2023-02-15T21:07:59.341Z,4.40
2023-02-15T21:10:31.109Z,4.40
2023-02-15T21:13:02.889Z,4.40
2023-02-15T21:15:34.375Z,4.40
2023-02-15T21:18:05.381Z,4.40
2023-02-15T21:20:36.205Z,4.40
2023-02-15T21:23:06.625Z,4.40
2023-02-15T21:25:38.710Z,4.40
2023-02-15T21:28:08.546Z,4.40
2023-02-15T21:30:37.584Z,4.30
2023-02-15T21:33:06.665Z,4.30
2023-02-15T21:35:37.763Z,4.30
2023-02-15T21:38:07.836Z,4.20
2023-02-15T21:40:38.241Z,4.20
2023-02-15T21:43:31.545Z,4.20
2023-02-15T21:46:20.589Z,4.10
2023-02-15T21:48:49.572Z,4.10
2023-02-15T21:51:36.473Z,4.00
2023-02-15T21:54:05.869Z,4.00
2023-02-15T21:56:36.230Z,4.00
2023-02-15T21:59:11.309Z,4.00
2023-02-15T22:01:42.051Z,4.00
2023-02-15T22:04:15.581Z,4.00
2023-02-15T22:06:44.681Z,4.00
2023-02-15T22:09:17.656Z,4.10
2023-02-15T22:11:48.526Z,4.10
2023-02-15T22:14:37.174Z,4.10
2023-02-15T22:17:15.086Z,4.10
2023-02-15T22:19:44.574Z,4.10
2023-02-15T22:22:14.221Z,4.10
2023-02-15T22:24:43.590Z,4.20
2023-02-15T22:27:19.515Z,4.20
2023-02-15T22:29:49.015Z,4.20
2023-02-15T22:32:20.638Z,4.20
2023-02-15T22:34:50.339Z,4.20
2023-02-15T22:37:19.488Z,4.30
2023-02-15T22:39:48.692Z,4.30
2023-02-15T22:42:27.332Z,4.30
2023-02-15T22:44:59.224Z,4.30
2023-02-15T22:47:32.019Z,4.30
2023-02-15T22:50:01.937Z,4.30
2023-02-15T22:52:31.276Z,4.40
2023-02-15T22:55:00.342Z,4.40
2023-02-15T22:57:32.861Z,4.40
2023-02-15T23:00:02.243Z,4.40
2023-02-15T23:02:31.135Z,4.40
2023-02-15T23:04:59.990Z,4.40
2023-02-15T23:07:29.268Z,4.40
2023-02-15T23:09:58.145Z,4.40
2023-02-15T23:12:53.545Z,4.40
2023-02-15T23:15:22.572Z,4.40
2023-02-15T23:17:51.668Z,4.40
2023-02-15T23:20:21.164Z,4.40
2023-02-15T23:22:50.184Z,4.40
2023-02-15T23:25:24.306Z,4.30
2023-02-15T23:27:57.963Z,4.30
2023-02-15T23:30:27.386Z,4.30
2023-02-15T23:32:57.561Z,4.20
2023-02-15T23:35:26.425Z,4.20
2023-02-15T23:37:55.664Z,4.20
2023-02-15T23:40:42.105Z,4.10
2023-02-15T23:43:20.565Z,4.10
2023-02-15T23:45:49.772Z,4.10
2023-02-15T23:48:33.347Z,4.00
2023-02-15T23:51:02.974Z,4.00
2023-02-15T23:53:32.997Z,4.00
2023-02-15T23:56:02.524Z,3.90
2023-02-15T23:58:40.326Z,3.90
